Harbor Emperor — WCY6430 — position and weather

sailwx.info

Track history (hours):
 
Tides and Currents Weather Stations Pressure Air Temp Water Temp Dewpoint Dewpoint Depression Visibility Wind Speed Wind Dir Waves Ship Positions

Harbor Emperor

Owner: BLUE & GOLD FLEET, SAN FRANCISCO, CA. More information available from US FCC via Universal Licensing System and Coast Guard Vessel Documentation Center.

Last reported at 2016-May-06 01:23 UTC. Time now 2016-May-06 16:47 UTC.
Position N 37°49' W 122°25'.

Length 31 m.

Type: Passenger vessel. MMSI: 366985270.

Date/timePositionNaut miles runAvg speedWind from/ knotsBaromVisibWave heightAir tempDewpointWater temp
2016-May-06 01:23N 37°49' W 122°25'0 0.2
2016-May-06 00:34N 37°49' W 122°25'1 1.2
2016-May-05 23:33N 37°50' W 122°25'1 1.4
2016-May-05 22:34N 37°49' W 122°25'3 3.1
2016-May-05 21:34N 37°49' W 122°29'3 3.1
2016-May-05 20:33N 37°49' W 122°25'3 2.7
2016-May-05 19:34N 37°49' W 122°28'3 2.8
2016-May-05 18:34N 37°49' W 122°24'0 0.3
2016-May-05 17:33N 37°49' W 122°25'0 0.0
2016-May-05 16:33N 37°49' W 122°25'0 0.0
2016-May-05 15:32N 37°49' W 122°25'0 0.0
2016-May-05 14:32N 37°49' W 122°25'0 0.0
2016-May-05 13:33N 37°49' W 122°25'0 0.0
2016-May-05 12:32N 37°49' W 122°25'0 0.0
2016-May-05 11:29N 37°49' W 122°25'0 0.0
2016-May-05 10:32N 37°49' W 122°25'0 0.0
2016-May-05 08:32N 37°49' W 122°25'0 0.0
2016-May-05 07:29N 37°49' W 122°25'0 0.0
2016-May-05 06:29N 37°49' W 122°25'0 0.0
2016-May-05 05:32N 37°49' W 122°25'0 0.0
2016-May-05 04:29N 37°49' W 122°25'0 0.0
2016-May-05 03:32N 37°49' W 122°25'1 0.6
2016-May-05 02:33N 37°49' W 122°24'5 5.0
2016-May-05 01:33N 37°47' W 122°18'6 5.5
2016-May-05 00:32N 37°49' W 122°25'0 0.0
2016-May-04 23:24N 37°49' W 122°25'4 4.8
2016-May-04 22:33N 37°51' W 122°29'3 2.7
2016-May-04 21:33N 37°49' W 122°26'1 1.3
2016-May-04 20:32N 37°49' W 122°25'3 3.2
2016-May-04 19:33N 37°51' W 122°28'1 1.0
2016-May-04 18:32N 37°51' W 122°29'4 4.0
2016-May-04 17:29N 37°49' W 122°25'2 0.2
2016-May-04 02:33N 37°51' W 122°26'1 0.6
2016-May-04 01:33N 37°50' W 122°27'2 1.7
2016-May-04 00:34N 37°51' W 122°29'4 4.2
2016-May-03 23:34N 37°49' W 122°25'4 3.6
2016-May-03 22:34N 37°51' W 122°28'2 2.3
2016-May-03 21:33N 37°49' W 122°26'1 1.3
2016-May-03 20:33N 37°49' W 122°25'3 2.8
2016-May-03 19:34N 37°50' W 122°28'1 1.4
2016-May-03 18:33N 37°51' W 122°29'4 4.1
2016-May-03 17:32N 37°49' W 122°25'0 0.0
2016-May-03 16:33N 37°49' W 122°25'0 0.0
2016-May-03 15:33N 37°49' W 122°25'0 0.0
2016-May-03 14:33N 37°49' W 122°25'0 0.0
2016-May-03 13:33N 37°49' W 122°25'0 0.0
2016-May-03 12:33N 37°49' W 122°25'0 0.0
2016-May-03 11:33N 37°49' W 122°25'0 0.0
2016-May-03 10:33N 37°49' W 122°25'0 0.0
2016-May-03 09:33N 37°49' W 122°25'0 0.0
2016-May-03 08:33N 37°49' W 122°25'0 0.0
2016-May-03 07:33N 37°49' W 122°25'0 0.0
2016-May-03 06:33N 37°49' W 122°25'0 0.0
2016-May-03 05:33N 37°49' W 122°25'0 0.0
2016-May-03 04:33N 37°49' W 122°25'0 0.0
2016-May-03 03:33N 37°49' W 122°25'2 1.5
2016-May-03 02:33N 37°50' W 122°26'0 0.1
2016-May-03 01:34N 37°50' W 122°26'3 2.8
2016-May-03 00:33N 37°51' W 122°29'4 4.2
2016-May-02 23:33N 37°49' W 122°25'0 0.0
2016-May-02 22:33N 37°49' W 122°25'3 2.8
2016-May-02 21:33N 37°49' W 122°28'3 2.8
2016-May-02 20:33N 37°49' W 122°25'3 2.9
2016-May-02 19:33N 37°49' W 122°28'3 3.0
2016-May-02 18:33N 37°49' W 122°25'1 0.5
2016-May-02 17:33N 37°49' W 122°25'0 0.0
2016-May-02 16:30N 37°49' W 122°25'0 0.0
2016-May-02 15:33N 37°49' W 122°25'0 0.0
2016-May-02 14:24N 37°49' W 122°25'0 0.0
2016-May-02 13:30N 37°49' W 122°25'0 0.0
2016-May-02 12:30N 37°49' W 122°25'0 0.0
2016-May-02 11:30N 37°49' W 122°25'0 0.0
2016-May-02 10:33N 37°49' W 122°25'0 0.0
2016-May-02 09:33N 37°49' W 122°25'0 0.0
2016-May-02 08:33N 37°49' W 122°25'0 0.0
2016-May-02 07:33N 37°49' W 122°25'0 0.0
2016-May-02 06:30N 37°49' W 122°25'0 0.0
2016-May-02 05:33N 37°49' W 122°25'0 0.0
2016-May-02 04:33N 37°49' W 122°25'0 0.0
2016-May-02 03:33N 37°49' W 122°25'0 0.0
2016-May-02 02:33N 37°49' W 122°25'2 1.9
2016-May-02 01:34N 37°50' W 122°26'2 1.9
2016-May-02 00:33N 37°49' W 122°25'0 0.1
2016-May-01 23:34N 37°49' W 122°25'2 2.5
2016-May-01 22:34N 37°49' W 122°28'3 2.5
2016-May-01 21:33N 37°49' W 122°25'3 2.8
2016-May-01 20:34N 37°49' W 122°28'3 3.0
2016-May-01 19:33N 37°49' W 122°24'1 0.6
2016-May-01 18:34N 37°49' W 122°25'3 3.0
2016-May-01 17:34N 37°49' W 122°29'3 3.2
2016-May-01 16:33N 37°49' W 122°25'0 0.0
2016-May-01 15:31N 37°49' W 122°25'0 0.0
2016-May-01 14:32N 37°49' W 122°25'0 0.0
2016-May-01 13:31N 37°49' W 122°25'0 0.0
2016-May-01 12:31N 37°49' W 122°25'0 0.0
2016-May-01 11:31N 37°49' W 122°25'0 0.0
2016-May-01 10:31N 37°49' W 122°25'0 0.0
2016-May-01 09:31N 37°49' W 122°25'0 0.0
2016-May-01 08:32N 37°49' W 122°25'0 0.0
2016-May-01 07:31N 37°49' W 122°25'0 0.0
2016-May-01 06:28N 37°49' W 122°25'0 0.0
2016-May-01 05:31N 37°49' W 122°25'0 0.0
2016-May-01 04:31N 37°49' W 122°25'0 0.0
2016-May-01 03:31N 37°49' W 122°25'0 0.0
2016-May-01 02:31N 37°49' W 122°25'2 2.3
2016-May-01 01:33N 37°50' W 122°27'2 2.3
2016-May-01 00:33N 37°49' W 122°25'0 0.1
2016-Apr-30 23:34N 37°49' W 122°25'2 2.1
2016-Apr-30 22:33N 37°49' W 122°27'2 2.1
2016-Apr-30 21:34N 37°49' W 122°25'3 2.8
2016-Apr-30 20:34N 37°49' W 122°28'3 2.8
2016-Apr-30 19:33N 37°49' W 122°24'1 0.6
2016-Apr-30 18:34N 37°49' W 122°25'3 3.1
2016-Apr-30 17:33N 37°49' W 122°29'3 2.9
2016-Apr-30 16:29N 37°49' W 122°25'0 0.0
2016-Apr-30 15:29N 37°49' W 122°25'0 0.0
2016-Apr-30 14:32N 37°49' W 122°25'0 0.0
2016-Apr-30 13:29N 37°49' W 122°25'0 0.0
2016-Apr-30 12:23N 37°49' W 122°25'0 0.0
2016-Apr-30 11:26N 37°49' W 122°25'0 0.0
2016-Apr-30 10:32N 37°49' W 122°25'0 0.0
2016-Apr-30 09:29N 37°49' W 122°25'0 0.0
2016-Apr-30 08:29N 37°49' W 122°25'0 0.0
2016-Apr-30 07:29N 37°49' W 122°25'0 0.0
2016-Apr-30 06:32N 37°49' W 122°25'0 0.0
2016-Apr-30 05:29N 37°49' W 122°25'0 0.0
2016-Apr-30 04:29N 37°49' W 122°25'0 0.0
2016-Apr-30 03:32N 37°49' W 122°25'0 0.0
2016-Apr-30 02:32N 37°49' W 122°25'0 0.0
2016-Apr-30 01:32N 37°49' W 122°25'0 0.0
2016-Apr-30 00:26N 37°49' W 122°25'0 0.2
2016-Apr-29 23:33N 37°49' W 122°25'2 2.3
2016-Apr-29 22:34N 37°49' W 122°28'2 2.3
2016-Apr-29 21:33N 37°49' W 122°25'3 2.7
2016-Apr-29 20:33N 37°49' W 122°28'3 3.2
2016-Apr-29 19:33N 37°49' W 122°24'1 0.8
2016-Apr-29 18:34N 37°49' W 122°25'3 3.0
2016-Apr-29 17:34N 37°49' W 122°28'3 3.1
2016-Apr-29 16:33N 37°49' W 122°25'0 0.0
2016-Apr-29 15:17N 37°49' W 122°25'0 0.0
2016-Apr-29 14:29N 37°49' W 122°25'0 0.0
2016-Apr-29 13:32N 37°49' W 122°25'0 0.0
2016-Apr-29 12:32N 37°49' W 122°25'0 0.0
2016-Apr-29 11:32N 37°49' W 122°25'0 0.0
2016-Apr-29 10:32N 37°49' W 122°25'0 0.0
2016-Apr-29 09:32N 37°49' W 122°25'0 0.0
2016-Apr-29 08:32N 37°49' W 122°25'0 0.0
2016-Apr-29 07:32N 37°49' W 122°25'0 0.0
2016-Apr-29 06:32N 37°49' W 122°25'0 0.0
2016-Apr-29 05:32N 37°49' W 122°25'0 0.0
2016-Apr-29 04:32N 37°49' W 122°25'0 0.0
2016-Apr-29 03:32N 37°49' W 122°25'0 0.0
2016-Apr-29 02:32N 37°49' W 122°25'0 0.0
2016-Apr-29 01:32N 37°49' W 122°25'0 0.0
2016-Apr-29 00:32N 37°49' W 122°25'0 0.1
2016-Apr-28 23:34N 37°49' W 122°25'2 2.2
2016-Apr-28 22:33N 37°49' W 122°27'2 2.2
2016-Apr-28 21:33N 37°49' W 122°25'2 2.2
2016-Apr-28 20:33N 37°49' W 122°27'3 3.1
2016-Apr-28 19:33N 37°49' W 122°24'1 0.9
2016-Apr-28 18:34N 37°49' W 122°25'3 2.7
2016-Apr-28 17:33N 37°49' W 122°28'3 2.7
2016-Apr-28 16:33N 37°49' W 122°25'0 0.0
2016-Apr-28 15:33N 37°49' W 122°25'0 0.0
2016-Apr-28 14:33N 37°49' W 122°25'0 0.0
2016-Apr-28 13:33N 37°49' W 122°25'0 0.0
2016-Apr-28 12:33N 37°49' W 122°25'0 0.0
2016-Apr-28 11:33N 37°49' W 122°25'0 0.0
2016-Apr-28 10:33N 37°49' W 122°25'0 0.0
2016-Apr-28 09:33N 37°49' W 122°25'0 0.0
2016-Apr-28 08:33N 37°49' W 122°25'0 0.0
2016-Apr-28 07:33N 37°49' W 122°25'0 0.0
2016-Apr-28 06:33N 37°49' W 122°25'0 0.0
2016-Apr-28 05:33N 37°49' W 122°25'0 0.0
2016-Apr-28 04:33N 37°49' W 122°25'0 0.0
2016-Apr-28 03:33N 37°49' W 122°25'0 0.0
2016-Apr-28 02:33N 37°49' W 122°25'0 0.0
2016-Apr-28 01:33N 37°49' W 122°25'0 0.0
2016-Apr-28 00:33N 37°49' W 122°25'0 0.1
2016-Apr-27 23:34N 37°49' W 122°25'2 2.1
2016-Apr-27 22:33N 37°49' W 122°27'2 2.2
2016-Apr-27 21:33N 37°49' W 122°25'2 2.1
2016-Apr-27 20:34N 37°49' W 122°27'2 2.5
2016-Apr-27 19:33N 37°49' W 122°24'1 0.5
2016-Apr-27 18:33N 37°49' W 122°25'2 2.5
2016-Apr-27 17:33N 37°49' W 122°28'3 2.5
2016-Apr-27 16:33N 37°49' W 122°25'0 0.0
2016-Apr-27 15:33N 37°49' W 122°25'0 0.0
2016-Apr-27 14:33N 37°49' W 122°25'0 0.0
2016-Apr-27 13:33N 37°49' W 122°25'0 0.0
2016-Apr-27 12:33N 37°49' W 122°25'0 0.0
2016-Apr-27 11:33N 37°49' W 122°25'0 0.0
2016-Apr-27 10:34N 37°49' W 122°25'0 0.0
2016-Apr-27 09:33N 37°49' W 122°25'0 0.0
2016-Apr-27 08:34N 37°49' W 122°25'0 0.0
2016-Apr-27 07:33N 37°49' W 122°25'0 0.0
2016-Apr-27 06:34N 37°49' W 122°25'0 0.0
2016-Apr-27 05:34N 37°49' W 122°25'0 0.0
2016-Apr-27 04:33N 37°49' W 122°25'0 0.0
2016-Apr-27 03:33N 37°49' W 122°25'0 0.0
2016-Apr-27 02:34N 37°49' W 122°25'0 0.0
2016-Apr-27 01:33N 37°49' W 122°25'0 0.0
2016-Apr-27 00:34N 37°49' W 122°25'0 0.0
2016-Apr-26 23:33N 37°49' W 122°25'3 3.4
2016-Apr-26 22:33N 37°51' W 122°28'3 3.3
2016-Apr-26 21:33N 37°49' W 122°25'0 0.0
2016-Apr-26 20:33N 37°49' W 122°25'0 0.0
2016-Apr-26 19:32N 37°49' W 122°25'1 0.8
2016-Apr-26 18:33N 37°48' W 122°24'0 0.0
2016-Apr-26 17:33N 37°48' W 122°24'0 0.0
2016-Apr-26 16:33N 37°48' W 122°24'1 0.8
2016-Apr-26 15:33N 37°49' W 122°24'0 0.2
2016-Apr-26 14:33N 37°49' W 122°25'0 0.0
2016-Apr-26 13:33N 37°49' W 122°25'0 0.0
2016-Apr-26 12:33N 37°49' W 122°25'0 0.0
2016-Apr-26 11:33N 37°49' W 122°25'0 0.0
2016-Apr-26 10:33N 37°49' W 122°25'0 0.0
2016-Apr-26 09:33N 37°49' W 122°25'0 0.0
2016-Apr-26 08:33N 37°49' W 122°25'0 0.0
2016-Apr-26 07:33N 37°49' W 122°25'0 0.0
2016-Apr-26 06:33N 37°49' W 122°25'0 0.0
2016-Apr-26 05:33N 37°49' W 122°25'0 0.0
2016-Apr-26 04:33N 37°49' W 122°25'0 0.0
2016-Apr-26 03:33N 37°49' W 122°25'0 0.0
2016-Apr-26 02:33N 37°49' W 122°25'0 0.0
2016-Apr-26 01:33N 37°49' W 122°25'  
Track history (hours):
 
Tides and Currents Weather Stations Pressure Air Temp Water Temp Dewpoint Dewpoint Depression Visibility Wind Speed Wind Dir Waves Ship Positions

Harbor Emperor

Owner: BLUE & GOLD FLEET, SAN FRANCISCO, CA. More information available from US FCC via Universal Licensing System and Coast Guard Vessel Documentation Center.

Last reported at 2016-May-06 01:23 UTC. Time now 2016-May-06 16:47 UTC.
Position N 37°49' W 122°25'.

Length 31 m.

Type: Passenger vessel. MMSI: 366985270.

Date/timePositionNaut miles runAvg speedWind from/ knotsBaromVisibWave heightAir tempDewpointWater temp
2016-May-06 01:23N 37°49' W 122°25'0 0.2
2016-May-06 00:34N 37°49' W 122°25'1 1.2
2016-May-05 23:33N 37°50' W 122°25'1 1.4
2016-May-05 22:34N 37°49' W 122°25'3 3.1
2016-May-05 21:34N 37°49' W 122°29'3 3.1
2016-May-05 20:33N 37°49' W 122°25'3 2.7
2016-May-05 19:34N 37°49' W 122°28'3 2.8
2016-May-05 18:34N 37°49' W 122°24'0 0.3
2016-May-05 17:33N 37°49' W 122°25'0 0.0
2016-May-05 16:33N 37°49' W 122°25'0 0.0
2016-May-05 15:32N 37°49' W 122°25'0 0.0
2016-May-05 14:32N 37°49' W 122°25'0 0.0
2016-May-05 13:33N 37°49' W 122°25'0 0.0
2016-May-05 12:32N 37°49' W 122°25'0 0.0
2016-May-05 11:29N 37°49' W 122°25'0 0.0
2016-May-05 10:32N 37°49' W 122°25'0 0.0
2016-May-05 08:32N 37°49' W 122°25'0 0.0
2016-May-05 07:29N 37°49' W 122°25'0 0.0
2016-May-05 06:29N 37°49' W 122°25'0 0.0
2016-May-05 05:32N 37°49' W 122°25'0 0.0
2016-May-05 04:29N 37°49' W 122°25'0 0.0
2016-May-05 03:32N 37°49' W 122°25'1 0.6
2016-May-05 02:33N 37°49' W 122°24'5 5.0
2016-May-05 01:33N 37°47' W 122°18'6 5.5
2016-May-05 00:32N 37°49' W 122°25'0 0.0
2016-May-04 23:24N 37°49' W 122°25'4 4.8
2016-May-04 22:33N 37°51' W 122°29'3 2.7
2016-May-04 21:33N 37°49' W 122°26'1 1.3
2016-May-04 20:32N 37°49' W 122°25'3 3.2
2016-May-04 19:33N 37°51' W 122°28'1 1.0
2016-May-04 18:32N 37°51' W 122°29'4 4.0
2016-May-04 17:29N 37°49' W 122°25'2 0.2
2016-May-04 02:33N 37°51' W 122°26'1 0.6
2016-May-04 01:33N 37°50' W 122°27'2 1.7
2016-May-04 00:34N 37°51' W 122°29'4 4.2
2016-May-03 23:34N 37°49' W 122°25'4 3.6
2016-May-03 22:34N 37°51' W 122°28'2 2.3
2016-May-03 21:33N 37°49' W 122°26'1 1.3
2016-May-03 20:33N 37°49' W 122°25'3 2.8
2016-May-03 19:34N 37°50' W 122°28'1 1.4
2016-May-03 18:33N 37°51' W 122°29'4 4.1
2016-May-03 17:32N 37°49' W 122°25'0 0.0
2016-May-03 16:33N 37°49' W 122°25'0 0.0
2016-May-03 15:33N 37°49' W 122°25'0 0.0
2016-May-03 14:33N 37°49' W 122°25'0 0.0
2016-May-03 13:33N 37°49' W 122°25'0 0.0
2016-May-03 12:33N 37°49' W 122°25'0 0.0
2016-May-03 11:33N 37°49' W 122°25'0 0.0
2016-May-03 10:33N 37°49' W 122°25'0 0.0
2016-May-03 09:33N 37°49' W 122°25'0 0.0
2016-May-03 08:33N 37°49' W 122°25'0 0.0
2016-May-03 07:33N 37°49' W 122°25'0 0.0
2016-May-03 06:33N 37°49' W 122°25'0 0.0
2016-May-03 05:33N 37°49' W 122°25'0 0.0
2016-May-03 04:33N 37°49' W 122°25'0 0.0
2016-May-03 03:33N 37°49' W 122°25'2 1.5
2016-May-03 02:33N 37°50' W 122°26'0 0.1
2016-May-03 01:34N 37°50' W 122°26'3 2.8
2016-May-03 00:33N 37°51' W 122°29'4 4.2
2016-May-02 23:33N 37°49' W 122°25'0 0.0
2016-May-02 22:33N 37°49' W 122°25'3 2.8
2016-May-02 21:33N 37°49' W 122°28'3 2.8
2016-May-02 20:33N 37°49' W 122°25'3 2.9
2016-May-02 19:33N 37°49' W 122°28'3 3.0
2016-May-02 18:33N 37°49' W 122°25'1 0.5
2016-May-02 17:33N 37°49' W 122°25'0 0.0
2016-May-02 16:30N 37°49' W 122°25'0 0.0
2016-May-02 15:33N 37°49' W 122°25'0 0.0
2016-May-02 14:24N 37°49' W 122°25'0 0.0
2016-May-02 13:30N 37°49' W 122°25'0 0.0
2016-May-02 12:30N 37°49' W 122°25'0 0.0
2016-May-02 11:30N 37°49' W 122°25'0 0.0
2016-May-02 10:33N 37°49' W 122°25'0 0.0
2016-May-02 09:33N 37°49' W 122°25'0 0.0
2016-May-02 08:33N 37°49' W 122°25'0 0.0
2016-May-02 07:33N 37°49' W 122°25'0 0.0
2016-May-02 06:30N 37°49' W 122°25'0 0.0
2016-May-02 05:33N 37°49' W 122°25'0 0.0
2016-May-02 04:33N 37°49' W 122°25'0 0.0
2016-May-02 03:33N 37°49' W 122°25'0 0.0
2016-May-02 02:33N 37°49' W 122°25'2 1.9
2016-May-02 01:34N 37°50' W 122°26'2 1.9
2016-May-02 00:33N 37°49' W 122°25'0 0.1
2016-May-01 23:34N 37°49' W 122°25'2 2.5
2016-May-01 22:34N 37°49' W 122°28'3 2.5
2016-May-01 21:33N 37°49' W 122°25'3 2.8
2016-May-01 20:34N 37°49' W 122°28'3 3.0
2016-May-01 19:33N 37°49' W 122°24'1 0.6
2016-May-01 18:34N 37°49' W 122°25'3 3.0
2016-May-01 17:34N 37°49' W 122°29'3 3.2
2016-May-01 16:33N 37°49' W 122°25'0 0.0
2016-May-01 15:31N 37°49' W 122°25'0 0.0
2016-May-01 14:32N 37°49' W 122°25'0 0.0
2016-May-01 13:31N 37°49' W 122°25'0 0.0
2016-May-01 12:31N 37°49' W 122°25'0 0.0
2016-May-01 11:31N 37°49' W 122°25'0 0.0
2016-May-01 10:31N 37°49' W 122°25'0 0.0
2016-May-01 09:31N 37°49' W 122°25'0 0.0
2016-May-01 08:32N 37°49' W 122°25'0 0.0
2016-May-01 07:31N 37°49' W 122°25'0 0.0
2016-May-01 06:28N 37°49' W 122°25'0 0.0
2016-May-01 05:31N 37°49' W 122°25'0 0.0
2016-May-01 04:31N 37°49' W 122°25'0 0.0
2016-May-01 03:31N 37°49' W 122°25'0 0.0
2016-May-01 02:31N 37°49' W 122°25'2 2.3
2016-May-01 01:33N 37°50' W 122°27'2 2.3
2016-May-01 00:33N 37°49' W 122°25'0 0.1
2016-Apr-30 23:34N 37°49' W 122°25'2 2.1
2016-Apr-30 22:33N 37°49' W 122°27'2 2.1
2016-Apr-30 21:34N 37°49' W 122°25'3 2.8
2016-Apr-30 20:34N 37°49' W 122°28'3 2.8
2016-Apr-30 19:33N 37°49' W 122°24'1 0.6
2016-Apr-30 18:34N 37°49' W 122°25'3 3.1
2016-Apr-30 17:33N 37°49' W 122°29'3 2.9
2016-Apr-30 16:29N 37°49' W 122°25'0 0.0
2016-Apr-30 15:29N 37°49' W 122°25'0 0.0
2016-Apr-30 14:32N 37°49' W 122°25'0 0.0
2016-Apr-30 13:29N 37°49' W 122°25'0 0.0
2016-Apr-30 12:23N 37°49' W 122°25'0 0.0
2016-Apr-30 11:26N 37°49' W 122°25'0 0.0
2016-Apr-30 10:32N 37°49' W 122°25'0 0.0
2016-Apr-30 09:29N 37°49' W 122°25'0 0.0
2016-Apr-30 08:29N 37°49' W 122°25'0 0.0
2016-Apr-30 07:29N 37°49' W 122°25'0 0.0
2016-Apr-30 06:32N 37°49' W 122°25'0 0.0
2016-Apr-30 05:29N 37°49' W 122°25'0 0.0
2016-Apr-30 04:29N 37°49' W 122°25'0 0.0
2016-Apr-30 03:32N 37°49' W 122°25'0 0.0
2016-Apr-30 02:32N 37°49' W 122°25'0 0.0
2016-Apr-30 01:32N 37°49' W 122°25'0 0.0
2016-Apr-30 00:26N 37°49' W 122°25'0 0.2
2016-Apr-29 23:33N 37°49' W 122°25'2 2.3
2016-Apr-29 22:34N 37°49' W 122°28'2 2.3
2016-Apr-29 21:33N 37°49' W 122°25'3 2.7
2016-Apr-29 20:33N 37°49' W 122°28'3 3.2
2016-Apr-29 19:33N 37°49' W 122°24'1 0.8
2016-Apr-29 18:34N 37°49' W 122°25'3 3.0
2016-Apr-29 17:34N 37°49' W 122°28'3 3.1
2016-Apr-29 16:33N 37°49' W 122°25'0 0.0
2016-Apr-29 15:17N 37°49' W 122°25'0 0.0
2016-Apr-29 14:29N 37°49' W 122°25'0 0.0
2016-Apr-29 13:32N 37°49' W 122°25'0 0.0
2016-Apr-29 12:32N 37°49' W 122°25'0 0.0
2016-Apr-29 11:32N 37°49' W 122°25'0 0.0
2016-Apr-29 10:32N 37°49' W 122°25'0 0.0
2016-Apr-29 09:32N 37°49' W 122°25'0 0.0
2016-Apr-29 08:32N 37°49' W 122°25'0 0.0
2016-Apr-29 07:32N 37°49' W 122°25'0 0.0
2016-Apr-29 06:32N 37°49' W 122°25'0 0.0
2016-Apr-29 05:32N 37°49' W 122°25'0 0.0
2016-Apr-29 04:32N 37°49' W 122°25'0 0.0
2016-Apr-29 03:32N 37°49' W 122°25'0 0.0
2016-Apr-29 02:32N 37°49' W 122°25'0 0.0
2016-Apr-29 01:32N 37°49' W 122°25'0 0.0
2016-Apr-29 00:32N 37°49' W 122°25'0 0.1
2016-Apr-28 23:34N 37°49' W 122°25'2 2.2
2016-Apr-28 22:33N 37°49' W 122°27'2 2.2
2016-Apr-28 21:33N 37°49' W 122°25'2 2.2
2016-Apr-28 20:33N 37°49' W 122°27'3 3.1
2016-Apr-28 19:33N 37°49' W 122°24'1 0.9
2016-Apr-28 18:34N 37°49' W 122°25'3 2.7
2016-Apr-28 17:33N 37°49' W 122°28'3 2.7
2016-Apr-28 16:33N 37°49' W 122°25'0 0.0
2016-Apr-28 15:33N 37°49' W 122°25'0 0.0
2016-Apr-28 14:33N 37°49' W 122°25'0 0.0
2016-Apr-28 13:33N 37°49' W 122°25'0 0.0
2016-Apr-28 12:33N 37°49' W 122°25'0 0.0
2016-Apr-28 11:33N 37°49' W 122°25'0 0.0
2016-Apr-28 10:33N 37°49' W 122°25'0 0.0
2016-Apr-28 09:33N 37°49' W 122°25'0 0.0
2016-Apr-28 08:33N 37°49' W 122°25'0 0.0
2016-Apr-28 07:33N 37°49' W 122°25'0 0.0
2016-Apr-28 06:33N 37°49' W 122°25'0 0.0
2016-Apr-28 05:33N 37°49' W 122°25'0 0.0
2016-Apr-28 04:33N 37°49' W 122°25'0 0.0
2016-Apr-28 03:33N 37°49' W 122°25'0 0.0
2016-Apr-28 02:33N 37°49' W 122°25'0 0.0
2016-Apr-28 01:33N 37°49' W 122°25'0 0.0
2016-Apr-28 00:33N 37°49' W 122°25'0 0.1
2016-Apr-27 23:34N 37°49' W 122°25'2 2.1
2016-Apr-27 22:33N 37°49' W 122°27'2 2.2
2016-Apr-27 21:33N 37°49' W 122°25'2 2.1
2016-Apr-27 20:34N 37°49' W 122°27'2 2.5
2016-Apr-27 19:33N 37°49' W 122°24'1 0.5
2016-Apr-27 18:33N 37°49' W 122°25'2 2.5
2016-Apr-27 17:33N 37°49' W 122°28'3 2.5
2016-Apr-27 16:33N 37°49' W 122°25'0 0.0
2016-Apr-27 15:33N 37°49' W 122°25'0 0.0
2016-Apr-27 14:33N 37°49' W 122°25'0 0.0
2016-Apr-27 13:33N 37°49' W 122°25'0 0.0
2016-Apr-27 12:33N 37°49' W 122°25'0 0.0
2016-Apr-27 11:33N 37°49' W 122°25'0 0.0
2016-Apr-27 10:34N 37°49' W 122°25'0 0.0
2016-Apr-27 09:33N 37°49' W 122°25'0 0.0
2016-Apr-27 08:34N 37°49' W 122°25'0 0.0
2016-Apr-27 07:33N 37°49' W 122°25'0 0.0
2016-Apr-27 06:34N 37°49' W 122°25'0 0.0
2016-Apr-27 05:34N 37°49' W 122°25'0 0.0
2016-Apr-27 04:33N 37°49' W 122°25'0 0.0
2016-Apr-27 03:33N 37°49' W 122°25'0 0.0
2016-Apr-27 02:34N 37°49' W 122°25'0 0.0
2016-Apr-27 01:33N 37°49' W 122°25'0 0.0
2016-Apr-27 00:34N 37°49' W 122°25'0 0.0
2016-Apr-26 23:33N 37°49' W 122°25'3 3.4
2016-Apr-26 22:33N 37°51' W 122°28'3 3.3
2016-Apr-26 21:33N 37°49' W 122°25'0 0.0
2016-Apr-26 20:33N 37°49' W 122°25'0 0.0
2016-Apr-26 19:32N 37°49' W 122°25'1 0.8
2016-Apr-26 18:33N 37°48' W 122°24'0 0.0
2016-Apr-26 17:33N 37°48' W 122°24'0 0.0
2016-Apr-26 16:33N 37°48' W 122°24'1 0.8
2016-Apr-26 15:33N 37°49' W 122°24'0 0.2
2016-Apr-26 14:33N 37°49' W 122°25'0 0.0
2016-Apr-26 13:33N 37°49' W 122°25'0 0.0
2016-Apr-26 12:33N 37°49' W 122°25'0 0.0
2016-Apr-26 11:33N 37°49' W 122°25'0 0.0
2016-Apr-26 10:33N 37°49' W 122°25'0 0.0
2016-Apr-26 09:33N 37°49' W 122°25'0 0.0
2016-Apr-26 08:33N 37°49' W 122°25'0 0.0
2016-Apr-26 07:33N 37°49' W 122°25'0 0.0
2016-Apr-26 06:33N 37°49' W 122°25'0 0.0
2016-Apr-26 05:33N 37°49' W 122°25'0 0.0
2016-Apr-26 04:33N 37°49' W 122°25'0 0.0
2016-Apr-26 03:33N 37°49' W 122°25'0 0.0
2016-Apr-26 02:33N 37°49' W 122°25'0 0.0
2016-Apr-26 01:33N 37°49' W 122°25'  

Dump ship's entire track history